Marshall Army Air Field
KFRI : now visible

Airfield :











YOU CAN JOIN US ON...

 
LOGIN :

Register | Disclaimer

   EN    FR    IT 

 









Legend :    VFR   Marginal VFR   IFR   Intensive IFR   Very Intensive IFR
Visi :
Ceiling :
>= 8 km
>= 3000ft
5 to 8 km
1000 to 3000 ft
1500m to 5 km
500 to 1000 ft
800 to 1500m
200 to 500 ft
< 800m
< 200 ft
Symbols :   Thunderstorms  Fog  Heavy snow  Heavy precipitations  Wind > 20 kt






- Airport Elevation : 1065 ft


KFRI - Marshall Army Air Field

CURRENT METAR :
  • 240556Z AUTO 03003KT 10SM OVC029 02/M03 A3036 RMK AO2 SLP287 T00221035 10036 20022 400610022 58011

EXPIRED METARs :
  • 240526Z AUTO 02005KT 10SM OVC029 02/M04 A3037 RMK AO2 SLP290
  • 240456Z AUTO 02006KT 10SM OVC030 02/M04 A3038 RMK AO2 SLP294 T00241037
  • 240356Z AUTO 36007KT 10SM OVC030 03/M03 A3040 RMK AO2 SLP301 T00261035
  • 240326Z AUTO 01006KT 10SM OVC030 03/M03 A3040 RMK AO2 SLP301

TAF TAF KFRI
Valid from the 23 at 21:00 until the 25 at 03:00 UTC


232100Z 2321/2503 36015G20KT 9999 BKN035 QNH3032INS
BECMG 2400/2401 36009KT 9999 SCT030 QNH3034INS
BECMG 2412/2413 VRB06KT 9999 BKN024 QNH3021INS
BECMG 2418/2419 13012KT 9999 SCT030 QNH3003INS
BECMG 2500/2501 VRB06KT 9999 BKN029 QNH3005INS TX07/2421Z TN00/2413Z LAST NO AMDS AFT 2321 NEXT 2505
KZKC FIR / North America



MET'MAP, your aeronautical weather chart ! - Copyright ORBIFLY December 2007 - Disclaimer

ORBIFLY MET'MAP TEAM :

Programming & Development : Alexandra Zaïnal
Concept & original design : Baudouin d'Aumeries
Assistance for programming : Marc-Olivier Méhu
Technical & hardware support : Manuel Goepfert

Contact : metmap@orbifly.com




SOURCES & CREDITS :

   NOAA       Earth
Advisory